Lakehurst NAES /Maxfield Field
KNEL : now visible

Airfield :











YOU CAN JOIN US ON...

 
LOGIN :

Register | Disclaimer

   EN    FR    IT 

 









Legend :    VFR   Marginal VFR   IFR   Intensive IFR   Very Intensive IFR
Visi :
Ceiling :
>= 8 km
>= 3000ft
5 to 8 km
1000 to 3000 ft
1500m to 5 km
500 to 1000 ft
800 to 1500m
200 to 500 ft
< 800m
< 200 ft
Symbols :   Thunderstorms  Fog  Heavy snow  Heavy precipitations  Wind > 20 kt







- Airport Elevation : 101 ft
- IATA code : NEL


KNEL - Lakehurst NAES /Maxfield Field

CURRENT METAR :
  • 211800Z AUTO 26011KT CLR 37/23 A2980 RMK AO2 SLP088 T03720233 10378 20306 58010 $

EXPIRED METARs :
  • 211700Z AUTO 30013G17KT CLR 37/23 A2981 RMK AO2 SLP090 T03720233 $
  • 211600Z AUTO 27010KT FEW047 36/25 A2982 RMK AO2 SLP094 T03560250 $

TAF N/A
KZNY FIR / North America



MET'MAP, your aeronautical weather chart ! - Copyright ORBIFLY December 2007 - Disclaimer

ORBIFLY MET'MAP TEAM :

Programming & Development : Alexandra Zaïnal
Concept & Development : Baudouin d'Aumeries
Co-Development & Prog : Marc-Olivier Méhu
Technical & hardware support : Manuel Goepfert

Contact : metmap@orbifly.com




SOURCES & CREDITS :

   NOAA       Earth
Advisory